createdAt,value
2019-02-21T00:02:18.577Z,17.50
2019-02-21T00:04:47.244Z,15.33
2019-02-21T00:07:15.878Z,17.33
2019-02-21T00:09:44.486Z,16.10
2019-02-21T00:12:13.069Z,18.43
2019-02-21T00:14:41.700Z,17.60
2019-02-21T00:17:10.388Z,17.80
2019-02-21T00:19:39.139Z,16.83
2019-02-21T00:22:07.823Z,16.10
2019-02-21T00:24:36.600Z,16.87
2019-02-21T00:27:05.236Z,16.33
2019-02-21T00:29:33.830Z,16.50
2019-02-21T00:32:02.419Z,18.03
2019-02-21T00:34:31.027Z,17.80
2019-02-21T00:36:59.721Z,17.50
2019-02-21T00:39:28.309Z,16.07
2019-02-21T00:41:56.948Z,16.40
2019-02-21T00:44:25.679Z,16.73
2019-02-21T00:46:54.303Z,15.93
2019-02-21T00:49:22.852Z,15.70
2019-02-21T00:51:51.464Z,17.83
2019-02-21T00:54:19.950Z,16.77
2019-02-21T00:56:48.590Z,17.43
2019-02-21T00:59:17.134Z,17.30
2019-02-21T01:01:45.724Z,16.93
2019-02-21T01:04:14.336Z,17.53
2019-02-21T01:06:43.003Z,16.63
2019-02-21T01:09:11.639Z,16.70
2019-02-21T01:11:40.251Z,16.23
2019-02-21T01:14:08.814Z,15.13
2019-02-21T01:16:37.381Z,15.90
2019-02-21T01:19:06.058Z,15.40
2019-02-21T01:21:34.693Z,15.00
2019-02-21T01:24:05.040Z,16.47
2019-02-21T01:26:36.587Z,15.67
2019-02-21T01:29:05.259Z,16.03
2019-02-21T01:31:33.860Z,15.33
2019-02-21T01:34:02.339Z,16.50
2019-02-21T01:36:30.840Z,18.37
2019-02-21T01:38:59.361Z,17.47
2019-02-21T01:41:28.002Z,19.33
2019-02-21T01:43:56.489Z,18.83
2019-02-21T01:46:25.213Z,18.03
2019-02-21T01:48:53.758Z,14.53
2019-02-21T01:51:22.329Z,14.50
2019-02-21T01:53:50.892Z,15.87
2019-02-21T01:56:19.576Z,15.17
2019-02-21T01:58:48.073Z,17.10
2019-02-21T02:01:16.746Z,16.20
2019-02-21T02:03:45.383Z,17.40
2019-02-21T02:06:14.055Z,17.10
2019-02-21T02:08:42.694Z,17.27
2019-02-21T02:11:11.331Z,16.50
2019-02-21T02:13:39.957Z,18.33
2019-02-21T02:16:08.645Z,17.93
2019-02-21T02:18:37.259Z,17.83
2019-02-21T02:21:06.838Z,17.80
2019-02-21T02:23:35.445Z,17.53
2019-02-21T02:26:04.075Z,17.77
2019-02-21T02:28:32.631Z,16.97
2019-02-21T02:31:01.200Z,17.73
2019-02-21T02:33:29.708Z,18.60
2019-02-21T02:35:58.210Z,17.80
2019-02-21T02:38:26.769Z,19.07
2019-02-21T02:40:55.328Z,22.33
2019-02-21T02:43:23.939Z,21.83
2019-02-21T02:45:52.484Z,21.10
2019-02-21T02:48:21.000Z,21.67
2019-02-21T02:50:49.600Z,21.63
2019-02-21T02:53:18.275Z,20.90
2019-02-21T02:55:46.862Z,20.53
2019-02-21T02:58:15.470Z,19.93
2019-02-21T03:00:44.294Z,21.20
2019-02-21T03:03:12.934Z,23.60
2019-02-21T03:05:41.600Z,21.53
2019-02-21T03:08:10.309Z,21.73
2019-02-21T03:10:38.853Z,22.80
2019-02-21T03:13:07.533Z,22.50
2019-02-21T03:15:36.160Z,18.03
2019-02-21T03:18:04.827Z,18.10
2019-02-21T03:20:33.475Z,16.60
2019-02-21T03:23:02.047Z,16.37
2019-02-21T03:25:30.688Z,17.17
2019-02-21T03:27:59.662Z,16.73
2019-02-21T03:30:28.199Z,16.07
2019-02-21T03:32:56.694Z,16.67
2019-02-21T03:35:25.232Z,15.40
2019-02-21T03:37:53.717Z,16.07
2019-02-21T03:40:22.321Z,16.50
2019-02-21T03:42:50.817Z,16.60
2019-02-21T03:45:19.481Z,17.47
2019-02-21T03:47:48.066Z,18.37
2019-02-21T03:50:16.704Z,17.93
2019-02-21T03:52:45.276Z,16.33
2019-02-21T03:55:13.930Z,16.80
2019-02-21T03:57:42.567Z,16.17
2019-02-21T04:00:12.204Z,17.03
2019-02-21T04:02:40.869Z,16.73
2019-02-21T04:05:09.519Z,17.13
2019-02-21T04:07:38.294Z,17.37
2019-02-21T04:10:08.872Z,18.30
2019-02-21T04:12:37.521Z,19.67
2019-02-21T04:15:09.238Z,19.87
2019-02-21T04:17:37.807Z,20.20
2019-02-21T04:20:07.465Z,22.13
2019-02-21T04:22:35.943Z,25.30
2019-02-21T04:25:05.669Z,22.57
2019-02-21T04:27:34.304Z,23.37
2019-02-21T04:30:02.980Z,24.40
2019-02-21T04:32:31.539Z,23.37
2019-02-21T04:35:00.258Z,22.63
2019-02-21T04:37:29.065Z,22.13
2019-02-21T04:39:57.563Z,20.77
2019-02-21T04:42:26.172Z,21.10
2019-02-21T04:44:54.735Z,20.17
2019-02-21T04:47:23.382Z,21.90
2019-02-21T04:49:52.012Z,20.80
2019-02-21T04:52:20.558Z,22.13
2019-02-21T04:54:49.119Z,23.63
2019-02-21T04:57:17.674Z,23.60
2019-02-21T04:59:46.172Z,25.97
2019-02-21T05:02:14.675Z,26.70
2019-02-21T05:04:43.235Z,24.63
2019-02-21T05:07:11.843Z,23.17
2019-02-21T05:09:40.386Z,23.67
2019-02-21T05:12:08.920Z,24.87
2019-02-21T05:14:37.484Z,23.27
2019-02-21T05:17:06.028Z,24.40
2019-02-21T05:19:34.706Z,26.30
2019-02-21T05:22:03.250Z,27.57
2019-02-21T05:24:31.933Z,28.70
2019-02-21T05:27:08.118Z,27.30
2019-02-21T05:29:36.657Z,29.13
2019-02-21T05:32:26.145Z,27.33
2019-02-21T05:35:05.522Z,28.47
2019-02-21T05:37:35.669Z,25.47
2019-02-21T05:40:06.074Z,24.57
2019-02-21T05:42:39.114Z,25.00
2019-02-21T05:45:12.456Z,25.57
2019-02-21T05:47:45.252Z,24.30
2019-02-21T05:50:15.602Z,27.60
2019-02-21T05:52:45.996Z,24.40
2019-02-21T05:55:32.945Z,26.70
2019-02-21T05:58:06.465Z,26.50
2019-02-21T06:00:39.597Z,27.57
2019-02-21T06:03:09.916Z,24.53
2019-02-21T06:05:55.253Z,26.60
2019-02-21T06:08:28.064Z,24.73
2019-02-21T06:11:01.251Z,23.37
2019-02-21T06:13:37.657Z,24.10
2019-02-21T06:16:13.769Z,22.83
2019-02-21T06:18:53.045Z,23.70
2019-02-21T06:21:39.613Z,23.10
2019-02-21T06:24:28.423Z,24.07
2019-02-21T06:27:00.856Z,21.73
2019-02-21T06:29:34.200Z,22.00
2019-02-21T06:32:13.597Z,19.93
2019-02-21T06:34:33.718Z,20.57
2019-02-21T06:37:03.046Z,20.07
2019-02-21T06:39:33.777Z,18.70
2019-02-21T06:42:02.464Z,18.73
2019-02-21T06:44:31.198Z,18.50
2019-02-21T06:46:59.831Z,18.13
2019-02-21T06:49:32.878Z,17.70
2019-02-21T06:52:02.871Z,17.73
2019-02-21T06:54:31.651Z,16.00
2019-02-21T06:57:00.351Z,16.87
2019-02-21T06:59:29.298Z,16.47
2019-02-21T07:01:59.855Z,16.67
2019-02-21T07:04:33.299Z,17.77
2019-02-21T07:07:01.405Z,17.00
2019-02-21T07:09:29.934Z,16.37
2019-02-21T07:11:58.506Z,16.60
2019-02-21T07:14:27.294Z,17.57
2019-02-21T07:16:56.041Z,18.13
2019-02-21T07:19:24.645Z,16.83
2019-02-21T07:21:53.153Z,16.53
2019-02-21T07:24:22.084Z,16.97
2019-02-21T07:26:50.935Z,16.97
2019-02-21T07:29:19.738Z,17.53
2019-02-21T07:31:49.359Z,17.10
2019-02-21T07:34:18.258Z,17.90
2019-02-21T07:36:46.823Z,14.93
2019-02-21T07:39:18.527Z,15.37
2019-02-21T07:41:45.952Z,16.50
2019-02-21T07:44:14.693Z,16.13
2019-02-21T07:46:43.391Z,15.00
2019-02-21T07:49:12.071Z,15.23
2019-02-21T07:51:41.579Z,15.23
2019-02-21T07:54:10.436Z,15.20
2019-02-21T07:56:42.236Z,15.20
2019-02-21T07:59:12.048Z,15.30
2019-02-21T08:01:40.210Z,15.17
2019-02-21T08:04:08.980Z,14.87
2019-02-21T08:06:37.658Z,15.60
2019-02-21T08:09:08.586Z,14.43
2019-02-21T08:11:37.262Z,14.17
2019-02-21T08:14:08.908Z,12.87
2019-02-21T08:16:37.620Z,15.07
2019-02-21T08:19:06.147Z,14.87
2019-02-21T08:21:34.924Z,15.90
2019-02-21T08:24:03.667Z,13.73
2019-02-21T08:26:32.439Z,13.53
2019-02-21T08:29:01.190Z,17.43
2019-02-21T08:31:30.168Z,12.47
2019-02-21T08:34:04.168Z,12.83
2019-02-21T08:36:32.337Z,12.27
2019-02-21T08:39:00.963Z,12.17
2019-02-21T08:41:30.427Z,12.00
2019-02-21T08:43:59.252Z,12.53
2019-02-21T08:46:30.098Z,11.93
2019-02-21T08:49:00.426Z,11.70
2019-02-21T08:51:30.915Z,12.07
2019-02-21T08:53:59.855Z,11.37
2019-02-21T08:56:34.347Z,11.90
2019-02-21T08:59:06.887Z,11.67
2019-02-21T09:01:36.032Z,12.70
2019-02-21T09:04:14.824Z,12.17
2019-02-21T09:06:39.830Z,11.23
2019-02-21T09:09:08.673Z,11.37
2019-02-21T09:11:37.910Z,11.97
2019-02-21T09:14:08.842Z,11.73
2019-02-21T09:16:38.784Z,10.83
2019-02-21T09:19:08.996Z,10.33
2019-02-21T09:21:42.210Z,9.73
2019-02-21T09:24:26.848Z,9.67
2019-02-21T09:26:47.713Z,9.70
2019-02-21T09:29:18.307Z,8.53
2019-02-21T09:31:49.408Z,9.07
2019-02-21T09:34:21.451Z,7.67
2019-02-21T09:36:52.468Z,8.67
2019-02-21T09:39:24.378Z,8.77
2019-02-21T09:41:53.802Z,8.40
2019-02-21T09:44:27.435Z,9.57
2019-02-21T09:46:58.121Z,12.27
2019-02-21T09:49:27.176Z,11.70
2019-02-21T09:51:56.144Z,9.03
2019-02-21T09:54:29.754Z,8.00
2019-02-21T09:56:58.497Z,8.53
2019-02-21T09:59:28.802Z,8.67
2019-02-21T10:01:57.893Z,8.30
2019-02-21T10:04:32.135Z,8.47
2019-02-21T10:06:56.807Z,8.33
2019-02-21T10:09:25.406Z,8.70
2019-02-21T10:11:53.898Z,8.40
2019-02-21T10:14:22.448Z,7.63
2019-02-21T10:16:51.181Z,8.33
2019-02-21T10:19:19.812Z,8.17
2019-02-21T10:21:48.421Z,9.43
2019-02-21T10:24:17.191Z,8.60
2019-02-21T10:26:45.812Z,7.80
2019-02-21T10:29:14.346Z,7.70
2019-02-21T10:31:45.964Z,6.97
2019-02-21T10:34:14.713Z,7.87
2019-02-21T10:36:43.316Z,8.90
2019-02-21T10:39:12.538Z,9.33
2019-02-21T10:41:46.087Z,10.57
2019-02-21T10:44:17.448Z,7.77
2019-02-21T10:46:46.354Z,8.40
2019-02-21T10:49:17.760Z,8.27
2019-02-21T10:51:46.575Z,8.00
2019-02-21T10:54:15.542Z,10.80
2019-02-21T10:56:44.350Z,8.60
2019-02-21T10:59:18.746Z,7.60
2019-02-21T11:01:47.635Z,7.93
2019-02-21T11:04:16.393Z,7.10
2019-02-21T11:06:45.082Z,7.47
2019-02-21T11:09:16.792Z,7.17
2019-02-21T11:11:45.451Z,7.33
2019-02-21T11:14:14.216Z,6.90
2019-02-21T11:16:43.009Z,7.83
2019-02-21T11:19:11.708Z,8.83
2019-02-21T11:21:41.382Z,7.77
2019-02-21T11:24:10.843Z,6.27
2019-02-21T11:26:45.656Z,8.60
2019-02-21T11:29:22.228Z,6.70
2019-02-21T11:31:51.086Z,7.62
2019-02-21T11:34:19.810Z,8.05
2019-02-21T11:36:48.543Z,6.95
2019-02-21T11:39:17.344Z,7.75
2019-02-21T11:41:46.176Z,7.73
2019-02-21T11:44:17.496Z,7.63
2019-02-21T11:46:52.495Z,8.10
2019-02-21T11:49:33.262Z,7.70
2019-02-21T11:52:10.561Z,7.40
2019-02-21T11:54:39.607Z,7.47
2019-02-21T11:57:16.529Z,7.20
2019-02-21T11:59:47.169Z,8.73
2019-02-21T12:02:16.071Z,6.40
2019-02-21T12:04:53.173Z,6.77
2019-02-21T12:07:23.563Z,7.30
2019-02-21T12:09:52.331Z,7.97
2019-02-21T12:12:21.030Z,7.43
2019-02-21T12:14:51.304Z,6.63
2019-02-21T12:17:21.450Z,6.75
2019-02-21T12:20:00.623Z,6.83
2019-02-21T12:22:29.357Z,6.75
2019-02-21T12:25:00.393Z,5.30
2019-02-21T12:27:31.496Z,5.90
2019-02-21T12:30:00.524Z,6.23
2019-02-21T12:32:30.878Z,6.95
2019-02-21T12:35:02.522Z,6.53
2019-02-21T12:37:31.398Z,6.37
2019-02-21T12:40:03.418Z,6.90
2019-02-21T12:42:32.189Z,6.00
2019-02-21T12:45:01.023Z,6.10
2019-02-21T12:47:32.733Z,6.60
2019-02-21T12:50:01.453Z,6.37
2019-02-21T12:52:30.314Z,6.20
2019-02-21T12:55:01.523Z,6.22
2019-02-21T12:57:34.738Z,6.10
2019-02-21T13:00:03.794Z,5.45
2019-02-21T13:02:32.582Z,6.47
2019-02-21T13:05:01.150Z,5.70
2019-02-21T13:07:29.783Z,5.92
2019-02-21T13:09:58.452Z,5.12
2019-02-21T13:12:27.124Z,5.15
2019-02-21T13:14:55.732Z,5.55
2019-02-21T13:17:24.353Z,6.87
2019-02-21T13:19:53.302Z,6.05
2019-02-21T13:22:22.070Z,5.77
2019-02-21T13:24:51.043Z,5.73
2019-02-21T13:27:19.819Z,5.53
2019-02-21T13:29:48.652Z,6.60
2019-02-21T13:32:17.459Z,5.63
2019-02-21T13:34:49.174Z,5.95
2019-02-21T13:37:28.180Z,6.65
2019-02-21T13:39:48.693Z,6.15
2019-02-21T13:42:17.830Z,6.10
2019-02-21T13:44:46.624Z,5.60
2019-02-21T13:47:18.599Z,6.25
2019-02-21T13:49:47.459Z,6.65
2019-02-21T13:52:16.313Z,6.62
2019-02-21T13:54:45.158Z,4.95
2019-02-21T13:57:14.497Z,6.80
2019-02-21T13:59:43.190Z,4.90
2019-02-21T14:02:11.879Z,5.80
2019-02-21T14:04:40.535Z,8.37
2019-02-21T14:07:14.220Z,5.87
2019-02-21T14:09:44.846Z,6.27
2019-02-21T14:12:13.603Z,5.90
2019-02-21T14:14:45.232Z,6.03
2019-02-21T14:17:19.679Z,5.93
2019-02-21T14:19:52.873Z,7.07
2019-02-21T14:22:20.798Z,6.93
2019-02-21T14:24:49.631Z,7.03
2019-02-21T14:27:18.312Z,7.50
2019-02-21T14:29:46.995Z,7.27
2019-02-21T14:32:16.092Z,6.17
2019-02-21T14:34:44.640Z,6.67
2019-02-21T14:37:13.324Z,7.83
2019-02-21T14:39:41.972Z,6.17
2019-02-21T14:42:11.084Z,5.45
2019-02-21T14:44:39.669Z,6.30
2019-02-21T14:47:08.392Z,5.60
2019-02-21T14:49:36.998Z,6.00
2019-02-21T14:52:07.249Z,5.57
2019-02-21T14:54:38.070Z,5.67
2019-02-21T14:57:06.346Z,6.67
2019-02-21T14:59:34.904Z,6.90
2019-02-21T15:02:06.073Z,7.97
2019-02-21T15:04:33.809Z,8.20
2019-02-21T15:07:02.533Z,7.00
2019-02-21T15:09:31.183Z,6.67
2019-02-21T15:11:59.742Z,8.70
2019-02-21T15:14:28.345Z,7.90
2019-02-21T15:16:56.916Z,6.97
2019-02-21T15:19:25.497Z,6.17
2019-02-21T15:21:54.136Z,5.93
2019-02-21T15:24:22.706Z,6.80
2019-02-21T15:26:51.321Z,6.37
2019-02-21T15:29:20.393Z,7.67
2019-02-21T15:31:49.088Z,7.27
2019-02-21T15:34:17.641Z,9.43
2019-02-21T15:36:46.716Z,7.10
2019-02-21T15:39:15.351Z,6.70
2019-02-21T15:41:46.691Z,7.87
2019-02-21T15:44:15.228Z,6.87
2019-02-21T15:46:43.750Z,7.33
2019-02-21T15:49:12.499Z,6.67
2019-02-21T15:51:41.083Z,6.63
2019-02-21T15:54:12.322Z,8.03
2019-02-21T15:56:40.036Z,7.73
2019-02-21T15:59:08.738Z,7.73
2019-02-21T16:01:47.013Z,7.37
2019-02-21T16:04:07.664Z,7.93
2019-02-21T16:06:38.079Z,6.10
2019-02-21T16:09:15.835Z,8.37
2019-02-21T16:11:38.331Z,8.33
2019-02-21T16:14:06.986Z,9.30
2019-02-21T16:16:35.589Z,9.40
2019-02-21T16:19:04.210Z,10.43
2019-02-21T16:21:35.669Z,10.73
2019-02-21T16:24:04.239Z,11.50
2019-02-21T16:26:32.907Z,12.40
2019-02-21T16:29:01.635Z,12.80
2019-02-21T16:31:32.948Z,12.70
2019-02-21T16:34:01.618Z,11.10
2019-02-21T16:36:30.294Z,11.20
2019-02-21T16:39:04.324Z,12.53
2019-02-21T16:41:36.268Z,15.70
2019-02-21T16:44:07.013Z,38.90
2019-02-21T16:46:38.050Z,38.13
2019-02-21T16:49:06.687Z,39.27
2019-02-21T16:51:35.325Z,33.00
2019-02-21T16:54:06.612Z,30.53
2019-02-21T16:56:35.302Z,32.97
2019-02-21T16:59:03.888Z,20.37
2019-02-21T17:01:33.025Z,14.17
2019-02-21T17:04:01.574Z,13.03
2019-02-21T17:06:30.139Z,14.17
2019-02-21T17:08:58.677Z,15.03
2019-02-21T17:11:30.133Z,17.40
2019-02-21T17:13:58.756Z,19.90
2019-02-21T17:16:30.116Z,35.43
2019-02-21T17:18:58.715Z,34.23
2019-02-21T17:21:27.276Z,33.07
2019-02-21T17:23:55.941Z,31.23
2019-02-21T17:26:24.585Z,27.37
2019-02-21T17:28:53.152Z,27.67
2019-02-21T17:31:21.819Z,24.80
2019-02-21T17:33:50.383Z,23.43
2019-02-21T17:36:18.998Z,21.83
2019-02-21T17:38:47.615Z,22.37
2019-02-21T17:41:16.299Z,23.07
2019-02-21T17:43:44.904Z,23.50
2019-02-21T17:46:13.581Z,24.30
2019-02-21T17:48:42.248Z,25.23
2019-02-21T17:51:13.854Z,25.83
2019-02-21T17:53:42.614Z,24.93
2019-02-21T17:56:11.258Z,25.67
2019-02-21T17:58:39.878Z,26.33
2019-02-21T18:01:08.759Z,27.57
2019-02-21T18:03:37.398Z,25.73
2019-02-21T18:06:05.996Z,23.93
2019-02-21T18:08:37.313Z,21.80
2019-02-21T18:11:08.913Z,22.67
2019-02-21T18:13:37.545Z,20.93
2019-02-21T18:16:08.932Z,23.93
2019-02-21T18:18:40.348Z,20.23
2019-02-21T18:21:09.091Z,20.80
2019-02-21T18:23:37.720Z,23.03
2019-02-21T18:26:09.297Z,23.73
2019-02-21T18:28:40.763Z,23.10
2019-02-21T18:31:09.476Z,23.00
2019-02-21T18:33:38.904Z,29.10
2019-02-21T18:36:07.536Z,35.00
2019-02-21T18:38:36.229Z,32.30
2019-02-21T18:41:04.884Z,28.43
2019-02-21T18:43:33.589Z,28.50
2019-02-21T18:46:02.350Z,30.43
2019-02-21T18:48:31.211Z,29.17
2019-02-21T18:50:59.860Z,25.97
2019-02-21T18:53:35.184Z,27.40
2019-02-21T18:56:03.987Z,27.30
2019-02-21T18:58:32.735Z,27.03
2019-02-21T19:01:01.463Z,29.03
2019-02-21T19:03:30.141Z,28.50
2019-02-21T19:05:58.864Z,23.67
2019-02-21T19:08:28.478Z,20.07
2019-02-21T19:10:57.100Z,18.23
2019-02-21T19:13:25.685Z,19.53
2019-02-21T19:15:54.319Z,18.37
2019-02-21T19:18:24.307Z,16.70
2019-02-21T19:20:53.747Z,17.03
2019-02-21T19:23:22.469Z,15.40
2019-02-21T19:25:51.286Z,14.80
2019-02-21T19:28:22.742Z,18.40
2019-02-21T19:30:59.952Z,27.77
2019-02-21T19:33:31.547Z,29.90
2019-02-21T19:36:00.243Z,27.83
2019-02-21T19:38:28.897Z,25.83
2019-02-21T19:40:57.560Z,24.73
2019-02-21T19:43:26.196Z,21.33
2019-02-21T19:45:55.412Z,24.33
2019-02-21T19:48:24.450Z,20.13
2019-02-21T19:50:53.055Z,20.43
2019-02-21T19:53:21.698Z,18.33
2019-02-21T19:55:50.357Z,18.40
2019-02-21T19:58:19.006Z,19.40
2019-02-21T20:00:48.696Z,21.13
2019-02-21T20:03:17.326Z,18.93
2019-02-21T20:05:47.441Z,20.00
2019-02-21T20:08:21.525Z,23.13
2019-02-21T20:10:49.259Z,21.83
2019-02-21T20:13:17.842Z,21.97
2019-02-21T20:15:46.454Z,20.63
2019-02-21T20:18:15.183Z,20.20
2019-02-21T20:20:43.791Z,20.10
2019-02-21T20:23:15.212Z,19.80
2019-02-21T20:25:43.900Z,20.20
2019-02-21T20:28:12.535Z,20.37
2019-02-21T20:30:41.955Z,18.53
2019-02-21T20:33:11.128Z,19.00
2019-02-21T20:35:39.626Z,19.17
2019-02-21T20:38:08.235Z,19.80
2019-02-21T20:40:36.797Z,18.63
2019-02-21T20:43:05.506Z,18.67
2019-02-21T20:45:52.899Z,18.67
2019-02-21T20:48:17.342Z,19.07
2019-02-21T20:50:56.374Z,18.87
2019-02-21T20:53:19.333Z,17.70
2019-02-21T20:55:51.407Z,18.40
2019-02-21T20:58:20.024Z,18.90
2019-02-21T21:00:48.722Z,19.90
2019-02-21T21:03:17.468Z,18.10
2019-02-21T21:05:46.097Z,18.47
2019-02-21T21:08:14.773Z,17.87
2019-02-21T21:10:43.411Z,18.53
2019-02-21T21:13:11.930Z,17.70
2019-02-21T21:15:40.542Z,20.27
2019-02-21T21:18:09.879Z,19.07
2019-02-21T21:20:38.636Z,19.73
2019-02-21T21:23:07.196Z,20.00
2019-02-21T21:25:36.398Z,19.17
2019-02-21T21:28:05.024Z,18.30
2019-02-21T21:30:33.637Z,17.93
2019-02-21T21:33:02.254Z,18.60
2019-02-21T21:35:31.032Z,18.90
2019-02-21T21:38:02.139Z,19.53
2019-02-21T21:40:30.809Z,19.37
2019-02-21T21:43:01.905Z,19.27
2019-02-21T21:45:30.911Z,18.80
2019-02-21T21:47:59.459Z,19.17
2019-02-21T21:50:28.146Z,19.17
2019-02-21T21:52:57.338Z,19.07
2019-02-21T21:55:25.970Z,19.97
2019-02-21T21:57:54.655Z,22.60
2019-02-21T22:00:24.124Z,20.07
2019-02-21T22:02:53.197Z,20.87
2019-02-21T22:05:21.916Z,15.23
2019-02-21T22:07:50.584Z,17.70
2019-02-21T22:10:19.225Z,15.50
2019-02-21T22:12:48.066Z,14.83
2019-02-21T22:15:19.046Z,13.03
2019-02-21T22:17:47.684Z,15.27
2019-02-21T22:20:16.376Z,13.43
2019-02-21T22:22:44.989Z,14.17
2019-02-21T22:25:14.496Z,14.27
2019-02-21T22:27:43.117Z,14.07
2019-02-21T22:30:14.493Z,13.73
2019-02-21T22:32:43.307Z,14.73
2019-02-21T22:35:11.936Z,16.80
2019-02-21T22:37:40.626Z,14.93
2019-02-21T22:40:15.264Z,14.33
2019-02-21T22:42:43.909Z,17.10
2019-02-21T22:45:12.527Z,23.87
2019-02-21T22:47:41.222Z,27.23
2019-02-21T22:50:19.792Z,20.73
2019-02-21T22:52:48.476Z,23.03
2019-02-21T22:58:57.936Z,20.10
2019-02-21T23:01:28.855Z,23.47
2019-02-21T23:04:09.641Z,26.30
2019-02-21T23:06:57.250Z,22.53
2019-02-21T23:09:30.681Z,21.70
2019-02-21T23:15:04.484Z,23.70
2019-02-21T23:17:33.048Z,23.93
2019-02-21T23:20:01.730Z,25.00
2019-02-21T23:22:30.370Z,25.83
2019-02-21T23:24:59.006Z,24.03
2019-02-21T23:27:27.641Z,22.50
2019-02-21T23:29:56.359Z,21.80
2019-02-21T23:32:25.038Z,23.17
2019-02-21T23:34:54.798Z,26.93
2019-02-21T23:37:23.475Z,26.33
2019-02-21T23:39:52.026Z,26.37
2019-02-21T23:42:20.841Z,24.60
2019-02-21T23:44:49.479Z,23.63
2019-02-21T23:47:18.126Z,23.60
2019-02-21T23:49:46.849Z,23.93
2019-02-21T23:52:15.337Z,24.77
2019-02-21T23:54:43.959Z,24.57
2019-02-21T23:57:13.456Z,24.23
2019-02-21T23:59:42.098Z,21.93
